Christina Belcher — WDD3948 — position and weather

sailwx.info

Track history (hours):
 
Tides and Currents Weather Stations Pressure Air Temp Water Temp Dewpoint Dewpoint Depression Visibility Wind Speed Wind Dir Waves Ship Positions

Christina Belcher

Owner: Florida Marine, LLC, Mandeville, LA. More information available from US FCC via Universal Licensing System and Coast Guard Vessel Documentation Center.

Last reported at 2018-Feb-19 16:00 UTC. Time now 2018-Feb-19 16:20 UTC.
Position N 30°04' W 093°29'.

Length 28 m; draft 2.9 m.

Type: Towing. MMSI: 367138450.

Date/timePositionNaut miles runAvg speedWind from/ knotsBaromVisibWave heightAir tempDewpointWater temp
2018-Feb-19 16:00N 30°04' W 093°29'2 4.6
2018-Feb-19 15:30N 30°04' W 093°31'2 4.8
2018-Feb-19 15:00N 30°04' W 093°34'2 5.0
2018-Feb-19 14:30N 30°04' W 093°37'3 5.8
2018-Feb-19 14:00N 30°04' W 093°40'3 5.6
2018-Feb-19 13:30N 30°03' W 093°44'3 5.0
2018-Feb-19 13:00N 30°01' W 093°45'3 6.0
2018-Feb-19 12:30N 29°59' W 093°48'3 5.5
2018-Feb-19 12:00N 29°58' W 093°51'1 2.1
2018-Feb-19 11:30N 29°59' W 093°52'3 6.4
2018-Feb-19 11:00N 29°59' W 093°56'3 5.2
2018-Feb-19 10:30N 30°01' W 093°58'1 1.4
2018-Feb-19 10:00N 30°01' W 093°59'0 0.3
2018-Feb-19 09:30N 30°01' W 093°59'0 0.0
2018-Feb-19 09:00N 30°01' W 093°59'0 0.0
2018-Feb-19 08:30N 30°01' W 093°59'0 0.0
2018-Feb-19 07:59N 30°01' W 093°59'0 0.0
2018-Feb-19 07:30N 30°01' W 093°59'0 0.0
2018-Feb-19 07:00N 30°01' W 093°59'0 0.0
2018-Feb-19 06:30N 30°01' W 093°59'0 0.0
2018-Feb-19 06:00N 30°01' W 093°59'0 0.0
2018-Feb-19 05:30N 30°01' W 093°59'0 0.0
2018-Feb-19 05:00N 30°01' W 093°59'0 0.0
2018-Feb-19 04:30N 30°01' W 093°59'0 0.0
2018-Feb-19 04:00N 30°01' W 093°59'0 0.0
2018-Feb-19 03:30N 30°01' W 093°59'0 0.0
2018-Feb-19 03:00N 30°01' W 093°59'0 0.0
2018-Feb-19 02:30N 30°01' W 093°59'0 0.0
2018-Feb-19 02:00N 30°01' W 093°59'0 0.0
2018-Feb-19 01:30N 30°01' W 093°59'0 0.0
2018-Feb-19 01:00N 30°01' W 093°59'0 0.0
2018-Feb-19 00:30N 30°01' W 093°59'0 0.0
2018-Feb-19 00:00N 30°01' W 093°59'0 0.0
2018-Feb-18 23:30N 30°01' W 093°59'0 0.0
2018-Feb-18 23:00N 30°01' W 093°59'0 0.0
2018-Feb-18 22:30N 30°01' W 093°59'0 0.0
2018-Feb-18 22:00N 30°01' W 093°59'0 0.0
2018-Feb-18 21:30N 30°01' W 093°59'0 0.0
2018-Feb-18 21:00N 30°01' W 093°59'0 0.0
2018-Feb-18 20:30N 30°01' W 093°59'0 0.0
2018-Feb-18 20:00N 30°01' W 093°59'0 0.0
2018-Feb-18 19:30N 30°01' W 093°59'0 0.0
2018-Feb-18 19:00N 30°01' W 093°59'0 0.4
2018-Feb-18 18:30N 30°01' W 093°59'0 0.0
2018-Feb-18 18:00N 30°01' W 093°59'0 0.0
2018-Feb-18 17:30N 30°01' W 093°59'0 0.0
2018-Feb-18 17:00N 30°01' W 093°59'1 2.0
2018-Feb-18 16:30N 30°01' W 093°58'2 4.2
2018-Feb-18 16:00N 29°60' W 093°56'1 2.4
2018-Feb-18 15:30N 29°60' W 093°55'0 0.0
2018-Feb-18 15:00N 29°60' W 093°55'0 0.0
2018-Feb-18 14:30N 29°60' W 093°55'0 0.0
2018-Feb-18 14:00N 29°60' W 093°55'0 0.0
2018-Feb-18 13:30N 29°60' W 093°55'0 0.0
2018-Feb-18 13:00N 29°60' W 093°55'0 0.0
2018-Feb-18 12:30N 29°60' W 093°55'0 0.0
2018-Feb-18 12:00N 29°60' W 093°55'0 0.0
2018-Feb-18 11:30N 29°60' W 093°55'0 0.0
2018-Feb-18 11:00N 29°60' W 093°55'0 0.0
2018-Feb-18 10:30N 29°60' W 093°55'0 0.0
2018-Feb-18 10:00N 29°60' W 093°55'0 0.0
2018-Feb-18 09:30N 29°60' W 093°55'0 0.0
2018-Feb-18 09:01N 29°60' W 093°55'0 0.0
2018-Feb-18 08:30N 29°60' W 093°55'0 0.0
2018-Feb-18 08:00N 29°60' W 093°55'1 1.1
2018-Feb-18 07:30N 29°59' W 093°54'3 5.3
2018-Feb-18 07:00N 29°58' W 093°52'0 0.0
2018-Feb-18 06:30N 29°58' W 093°52'1 1.9
2018-Feb-18 06:00N 29°59' W 093°52'2 4.6
2018-Feb-18 05:30N 29°60' W 093°55'0 0.2
2018-Feb-18 05:00N 29°60' W 093°55'2 4.2
2018-Feb-18 04:30N 29°59' W 093°52'2 3.6
2018-Feb-18 04:00N 29°59' W 093°50'3 5.4
2018-Feb-18 03:30N 29°60' W 093°47'2 3.3
2018-Feb-18 03:01N 30°01' W 093°46'0 0.1
2018-Feb-18 02:30N 30°01' W 093°46'1 2.9
2018-Feb-18 02:00N 30°01' W 093°44'3 6.0
2018-Feb-18 01:30N 30°03' W 093°42'3 6.1
2018-Feb-18 01:00N 30°04' W 093°39'3 5.1
2018-Feb-18 00:31N 30°04' W 093°36'2 4.7
2018-Feb-18 00:00N 30°04' W 093°33'3 6.1
2018-Feb-17 23:30N 30°04' W 093°29'3 6.1
2018-Feb-17 23:00N 30°04' W 093°26'2 3.4
2018-Feb-17 22:30N 30°04' W 093°24'2 3.9
2018-Feb-17 22:00N 30°04' W 093°22'2 4.8
2018-Feb-17 21:30N 30°05' W 093°20'2 4.1
2018-Feb-17 21:00N 30°05' W 093°17'2 4.9
2018-Feb-17 20:30N 30°03' W 093°16'1 1.0
2018-Feb-17 20:00N 30°03' W 093°16'0 0.1
2018-Feb-17 19:30N 30°03' W 093°16'0 0.1
2018-Feb-17 19:00N 30°03' W 093°16'0 0.1
2018-Feb-17 18:30N 30°03' W 093°16'0 0.1
2018-Feb-17 18:00N 30°03' W 093°16'1 2.7
2018-Feb-17 17:30N 30°02' W 093°15'3 6.1
2018-Feb-17 17:00N 29°59' W 093°13'3 6.6
2018-Feb-17 16:30N 29°57' W 093°10'3 6.0
2018-Feb-17 16:00N 29°56' W 093°07'3 6.6
2018-Feb-17 15:30N 29°56' W 093°03'2 0.3
2018-Feb-17 08:53N 29°56' W 093°01'0 0.0
2018-Feb-17 08:29N 29°56' W 093°01'0 0.0
2018-Feb-17 07:54N 29°56' W 093°01'0 0.0
2018-Feb-17 07:30N 29°56' W 093°01'0 0.0
2018-Feb-17 06:59N 29°56' W 093°01'0 0.0
2018-Feb-17 06:28N 29°56' W 093°01'0 0.0
2018-Feb-17 05:57N 29°56' W 093°01'0 0.0
2018-Feb-17 05:26N 29°56' W 093°01'0 0.0
2018-Feb-17 04:59N 29°56' W 093°01'0 0.0
2018-Feb-17 04:28N 29°56' W 093°01'1 2.7
2018-Feb-17 03:59N 29°56' W 092°60'3 5.0
2018-Feb-17 03:21N 29°56' W 092°56'5 6.1
2018-Feb-17 02:27N 29°58' W 092°50'3 6.1
2018-Feb-17 01:54N 29°58' W 092°46'2 5.5
2018-Feb-17 01:30N 29°58' W 092°44'20 5.5
2018-Feb-16 21:53N 29°51' W 092°22'2 5.1
2018-Feb-16 21:30N 29°50' W 092°20'2 4.9
2018-Feb-16 21:00N 29°49' W 092°17'3 5.4
2018-Feb-16 20:30N 29°48' W 092°14'2 4.8
2018-Feb-16 20:00N 29°47' W 092°12'1 1.3
2018-Feb-16 19:30N 29°47' W 092°11'0 0.0
2018-Feb-16 19:00N 29°47' W 092°11'0 0.6
2018-Feb-16 18:30N 29°47' W 092°12'0 0.1
2018-Feb-16 18:00N 29°47' W 092°12'2 3.5
2018-Feb-16 17:30N 29°47' W 092°10'2 4.8
2018-Feb-16 17:00N 29°48' W 092°07'3 5.1
2018-Feb-16 16:30N 29°48' W 092°04'3 5.3
2018-Feb-16 16:00N 29°49' W 092°01'3 5.3
2018-Feb-16 15:30N 29°50' W 091°58'3 3.9
2018-Feb-16 14:46N 29°51' W 091°55'0 0.0
2018-Feb-16 14:30N 29°51' W 091°55'0 0.0
2018-Feb-16 13:59N 29°51' W 091°55'0 0.0
2018-Feb-16 13:27N 29°51' W 091°55'0 0.0
2018-Feb-16 12:57N 29°51' W 091°55'0 0.0
2018-Feb-16 12:08N 29°51' W 091°55'0 0.1
2018-Feb-16 11:58N 29°51' W 091°55'0 0.0
2018-Feb-16 11:30N 29°51' W 091°55'0 0.0
2018-Feb-16 10:52N 29°51' W 091°55'0 0.0
2018-Feb-16 10:05N 29°51' W 091°55'0 0.1
2018-Feb-16 09:59N 29°51' W 091°55'0 0.0
2018-Feb-16 07:43N 29°51' W 091°55'0 0.0
2018-Feb-16 07:05N 29°51' W 091°55'0 0.0
2018-Feb-16 06:44N 29°51' W 091°55'0 0.1
2018-Feb-16 06:30N 29°51' W 091°55'0 0.0
2018-Feb-16 06:00N 29°51' W 091°55'0 0.0
2018-Feb-16 05:29N 29°51' W 091°55'0 0.0
2018-Feb-16 04:00N 29°51' W 091°55'0 0.0
2018-Feb-16 02:16N 29°51' W 091°55'0 0.0
2018-Feb-16 01:54N 29°51' W 091°55'0 0.0
2018-Feb-16 01:25N 29°51' W 091°55'0 0.2
2018-Feb-16 00:54N 29°51' W 091°55'  
2018-Feb-12 10:22N 29°51' W 091°56'2 3.9
2018-Feb-12 09:55N 29°50' W 091°58'2 4.1
2018-Feb-12 09:28N 29°50' W 091°60'2 4.1
2018-Feb-12 08:58N 29°49' W 092°02'2 5.0
2018-Feb-12 08:30N 29°48' W 092°05'2 4.5
2018-Feb-12 08:00N 29°47' W 092°07'2 4.3
2018-Feb-12 07:30N 29°47' W 092°09'2 4.3
2018-Feb-12 06:59N 29°47' W 092°12'1 3.0
2018-Feb-12 06:30N 29°48' W 092°13'2 3.4
2018-Feb-12 06:00N 29°48' W 092°15'2 4.3
2018-Feb-12 05:30N 29°49' W 092°17'1 2.7
2018-Feb-12 05:00N 29°50' W 092°18'3 5.1
2018-Feb-12 04:27N 29°51' W 092°22'36 1.5
2018-Feb-11 04:52N 29°56' W 093°03'2 5.2
2018-Feb-11 04:25N 29°56' W 093°06'2 4.6
2018-Feb-11 04:00N 29°56' W 093°08'2 4.8
2018-Feb-11 03:30N 29°57' W 093°10'3 5.6
2018-Feb-11 03:00N 29°59' W 093°13'3 5.2
2018-Feb-11 02:30N 30°01' W 093°14'2 4.5
2018-Feb-11 02:00N 30°03' W 093°16'2 5.0
2018-Feb-11 01:30N 30°05' W 093°17'1 2.0
2018-Feb-11 01:00N 30°06' W 093°18'2 3.7
2018-Feb-11 00:30N 30°05' W 093°20'1 2.6
2018-Feb-11 00:00N 30°04' W 093°21'2 3.3
2018-Feb-10 23:30N 30°04' W 093°23'1 1.7
2018-Feb-10 23:00N 30°04' W 093°24'1 3.0
2018-Feb-10 22:30N 30°04' W 093°26'2 4.6
2018-Feb-10 22:00N 30°04' W 093°28'2 4.9
2018-Feb-10 21:30N 30°04' W 093°31'2 4.9
2018-Feb-10 21:00N 30°04' W 093°34'2 4.8
2018-Feb-10 20:30N 30°04' W 093°37'3 5.1
2018-Feb-10 20:00N 30°03' W 093°40'3 5.0
2018-Feb-10 19:30N 30°03' W 093°43'2 4.3
2018-Feb-10 19:00N 30°02' W 093°44'3 5.6
2018-Feb-10 18:30N 29°60' W 093°47'2 4.5
2018-Feb-10 18:00N 29°59' W 093°49'2 4.5
2018-Feb-10 17:30N 29°58' W 093°51'2 5.0
2018-Feb-10 17:00N 29°59' W 093°54'3 5.8
2018-Feb-10 16:30N 30°00' W 093°57'2 3.3
2018-Feb-10 16:00N 30°01' W 093°59'0 0.3
2018-Feb-10 15:30N 30°01' W 093°59'0 0.0
2018-Feb-10 15:00N 30°01' W 093°59'0 0.0
2018-Feb-10 14:29N 30°01' W 093°59'0 0.0
2018-Feb-10 14:00N 30°01' W 093°59'0 0.0
2018-Feb-10 13:30N 30°01' W 093°59'0 0.0
2018-Feb-10 13:00N 30°01' W 093°59'0 0.0
2018-Feb-10 12:30N 30°01' W 093°59'0 0.0
2018-Feb-10 12:00N 30°01' W 093°59'0 0.0
2018-Feb-10 11:30N 30°01' W 093°59'0 0.0
2018-Feb-10 11:00N 30°01' W 093°59'0 0.0
2018-Feb-10 10:30N 30°01' W 093°59'0 0.0
2018-Feb-10 10:00N 30°01' W 093°59'0 0.0
2018-Feb-10 09:30N 30°01' W 093°59'0 0.0
2018-Feb-10 09:00N 30°01' W 093°59'0 0.0
2018-Feb-10 08:30N 30°01' W 093°59'0 0.1
2018-Feb-10 08:00N 30°01' W 093°59'0 0.2
2018-Feb-10 07:30N 30°01' W 093°59'0 0.2
2018-Feb-10 07:00N 30°01' W 093°59'0 0.0
2018-Feb-10 06:30N 30°01' W 093°59'0 0.2
2018-Feb-10 06:00N 30°01' W 093°59'0 0.2
2018-Feb-10 05:30N 30°01' W 093°59'0 0.1
2018-Feb-10 05:00N 30°01' W 093°59'0 0.6
2018-Feb-10 04:27N 30°01' W 093°59'0 0.0
2018-Feb-10 04:00N 30°01' W 093°59'0 0.0
2018-Feb-10 03:30N 30°01' W 093°59'0 0.0
2018-Feb-10 03:00N 30°01' W 093°59'0 0.0
2018-Feb-10 02:29N 30°01' W 093°59'0 0.0
2018-Feb-10 02:00N 30°01' W 093°59'0 0.0
2018-Feb-10 01:30N 30°01' W 093°59'0 0.0
2018-Feb-10 00:59N 30°01' W 093°59'0 0.0
2018-Feb-10 00:27N 30°01' W 093°59'0 0.0
2018-Feb-10 00:00N 30°01' W 093°59'0 0.0
2018-Feb-09 23:30N 30°01' W 093°59'0 0.0
2018-Feb-09 23:00N 30°01' W 093°59'0 0.0
2018-Feb-09 22:46N 30°01' W 093°59'0 0.0
2018-Feb-09 19:30N 30°01' W 093°59'0 0.0
2018-Feb-09 19:00N 30°01' W 093°59'0 0.0
2018-Feb-09 18:00N 30°01' W 093°59'0 0.0
2018-Feb-09 17:01N 30°01' W 093°59'  
Track history (hours):
 
Tides and Currents Weather Stations Pressure Air Temp Water Temp Dewpoint Dewpoint Depression Visibility Wind Speed Wind Dir Waves Ship Positions

Christina Belcher

Owner: Florida Marine, LLC, Mandeville, LA. More information available from US FCC via Universal Licensing System and Coast Guard Vessel Documentation Center.

Last reported at 2018-Feb-19 16:00 UTC. Time now 2018-Feb-19 16:20 UTC.
Position N 30°04' W 093°29'.

Length 28 m; draft 2.9 m.

Type: Towing. MMSI: 367138450.

Date/timePositionNaut miles runAvg speedWind from/ knotsBaromVisibWave heightAir tempDewpointWater temp
2018-Feb-19 16:00N 30°04' W 093°29'2 4.6
2018-Feb-19 15:30N 30°04' W 093°31'2 4.8
2018-Feb-19 15:00N 30°04' W 093°34'2 5.0
2018-Feb-19 14:30N 30°04' W 093°37'3 5.8
2018-Feb-19 14:00N 30°04' W 093°40'3 5.6
2018-Feb-19 13:30N 30°03' W 093°44'3 5.0
2018-Feb-19 13:00N 30°01' W 093°45'3 6.0
2018-Feb-19 12:30N 29°59' W 093°48'3 5.5
2018-Feb-19 12:00N 29°58' W 093°51'1 2.1
2018-Feb-19 11:30N 29°59' W 093°52'3 6.4
2018-Feb-19 11:00N 29°59' W 093°56'3 5.2
2018-Feb-19 10:30N 30°01' W 093°58'1 1.4
2018-Feb-19 10:00N 30°01' W 093°59'0 0.3
2018-Feb-19 09:30N 30°01' W 093°59'0 0.0
2018-Feb-19 09:00N 30°01' W 093°59'0 0.0
2018-Feb-19 08:30N 30°01' W 093°59'0 0.0
2018-Feb-19 07:59N 30°01' W 093°59'0 0.0
2018-Feb-19 07:30N 30°01' W 093°59'0 0.0
2018-Feb-19 07:00N 30°01' W 093°59'0 0.0
2018-Feb-19 06:30N 30°01' W 093°59'0 0.0
2018-Feb-19 06:00N 30°01' W 093°59'0 0.0
2018-Feb-19 05:30N 30°01' W 093°59'0 0.0
2018-Feb-19 05:00N 30°01' W 093°59'0 0.0
2018-Feb-19 04:30N 30°01' W 093°59'0 0.0
2018-Feb-19 04:00N 30°01' W 093°59'0 0.0
2018-Feb-19 03:30N 30°01' W 093°59'0 0.0
2018-Feb-19 03:00N 30°01' W 093°59'0 0.0
2018-Feb-19 02:30N 30°01' W 093°59'0 0.0
2018-Feb-19 02:00N 30°01' W 093°59'0 0.0
2018-Feb-19 01:30N 30°01' W 093°59'0 0.0
2018-Feb-19 01:00N 30°01' W 093°59'0 0.0
2018-Feb-19 00:30N 30°01' W 093°59'0 0.0
2018-Feb-19 00:00N 30°01' W 093°59'0 0.0
2018-Feb-18 23:30N 30°01' W 093°59'0 0.0
2018-Feb-18 23:00N 30°01' W 093°59'0 0.0
2018-Feb-18 22:30N 30°01' W 093°59'0 0.0
2018-Feb-18 22:00N 30°01' W 093°59'0 0.0
2018-Feb-18 21:30N 30°01' W 093°59'0 0.0
2018-Feb-18 21:00N 30°01' W 093°59'0 0.0
2018-Feb-18 20:30N 30°01' W 093°59'0 0.0
2018-Feb-18 20:00N 30°01' W 093°59'0 0.0
2018-Feb-18 19:30N 30°01' W 093°59'0 0.0
2018-Feb-18 19:00N 30°01' W 093°59'0 0.4
2018-Feb-18 18:30N 30°01' W 093°59'0 0.0
2018-Feb-18 18:00N 30°01' W 093°59'0 0.0
2018-Feb-18 17:30N 30°01' W 093°59'0 0.0
2018-Feb-18 17:00N 30°01' W 093°59'1 2.0
2018-Feb-18 16:30N 30°01' W 093°58'2 4.2
2018-Feb-18 16:00N 29°60' W 093°56'1 2.4
2018-Feb-18 15:30N 29°60' W 093°55'0 0.0
2018-Feb-18 15:00N 29°60' W 093°55'0 0.0
2018-Feb-18 14:30N 29°60' W 093°55'0 0.0
2018-Feb-18 14:00N 29°60' W 093°55'0 0.0
2018-Feb-18 13:30N 29°60' W 093°55'0 0.0
2018-Feb-18 13:00N 29°60' W 093°55'0 0.0
2018-Feb-18 12:30N 29°60' W 093°55'0 0.0
2018-Feb-18 12:00N 29°60' W 093°55'0 0.0
2018-Feb-18 11:30N 29°60' W 093°55'0 0.0
2018-Feb-18 11:00N 29°60' W 093°55'0 0.0
2018-Feb-18 10:30N 29°60' W 093°55'0 0.0
2018-Feb-18 10:00N 29°60' W 093°55'0 0.0
2018-Feb-18 09:30N 29°60' W 093°55'0 0.0
2018-Feb-18 09:01N 29°60' W 093°55'0 0.0
2018-Feb-18 08:30N 29°60' W 093°55'0 0.0
2018-Feb-18 08:00N 29°60' W 093°55'1 1.1
2018-Feb-18 07:30N 29°59' W 093°54'3 5.3
2018-Feb-18 07:00N 29°58' W 093°52'0 0.0
2018-Feb-18 06:30N 29°58' W 093°52'1 1.9
2018-Feb-18 06:00N 29°59' W 093°52'2 4.6
2018-Feb-18 05:30N 29°60' W 093°55'0 0.2
2018-Feb-18 05:00N 29°60' W 093°55'2 4.2
2018-Feb-18 04:30N 29°59' W 093°52'2 3.6
2018-Feb-18 04:00N 29°59' W 093°50'3 5.4
2018-Feb-18 03:30N 29°60' W 093°47'2 3.3
2018-Feb-18 03:01N 30°01' W 093°46'0 0.1
2018-Feb-18 02:30N 30°01' W 093°46'1 2.9
2018-Feb-18 02:00N 30°01' W 093°44'3 6.0
2018-Feb-18 01:30N 30°03' W 093°42'3 6.1
2018-Feb-18 01:00N 30°04' W 093°39'3 5.1
2018-Feb-18 00:31N 30°04' W 093°36'2 4.7
2018-Feb-18 00:00N 30°04' W 093°33'3 6.1
2018-Feb-17 23:30N 30°04' W 093°29'3 6.1
2018-Feb-17 23:00N 30°04' W 093°26'2 3.4
2018-Feb-17 22:30N 30°04' W 093°24'2 3.9
2018-Feb-17 22:00N 30°04' W 093°22'2 4.8
2018-Feb-17 21:30N 30°05' W 093°20'2 4.1
2018-Feb-17 21:00N 30°05' W 093°17'2 4.9
2018-Feb-17 20:30N 30°03' W 093°16'1 1.0
2018-Feb-17 20:00N 30°03' W 093°16'0 0.1
2018-Feb-17 19:30N 30°03' W 093°16'0 0.1
2018-Feb-17 19:00N 30°03' W 093°16'0 0.1
2018-Feb-17 18:30N 30°03' W 093°16'0 0.1
2018-Feb-17 18:00N 30°03' W 093°16'1 2.7
2018-Feb-17 17:30N 30°02' W 093°15'3 6.1
2018-Feb-17 17:00N 29°59' W 093°13'3 6.6
2018-Feb-17 16:30N 29°57' W 093°10'3 6.0
2018-Feb-17 16:00N 29°56' W 093°07'3 6.6
2018-Feb-17 15:30N 29°56' W 093°03'2 0.3
2018-Feb-17 08:53N 29°56' W 093°01'0 0.0
2018-Feb-17 08:29N 29°56' W 093°01'0 0.0
2018-Feb-17 07:54N 29°56' W 093°01'0 0.0
2018-Feb-17 07:30N 29°56' W 093°01'0 0.0
2018-Feb-17 06:59N 29°56' W 093°01'0 0.0
2018-Feb-17 06:28N 29°56' W 093°01'0 0.0
2018-Feb-17 05:57N 29°56' W 093°01'0 0.0
2018-Feb-17 05:26N 29°56' W 093°01'0 0.0
2018-Feb-17 04:59N 29°56' W 093°01'0 0.0
2018-Feb-17 04:28N 29°56' W 093°01'1 2.7
2018-Feb-17 03:59N 29°56' W 092°60'3 5.0
2018-Feb-17 03:21N 29°56' W 092°56'5 6.1
2018-Feb-17 02:27N 29°58' W 092°50'3 6.1
2018-Feb-17 01:54N 29°58' W 092°46'2 5.5
2018-Feb-17 01:30N 29°58' W 092°44'20 5.5
2018-Feb-16 21:53N 29°51' W 092°22'2 5.1
2018-Feb-16 21:30N 29°50' W 092°20'2 4.9
2018-Feb-16 21:00N 29°49' W 092°17'3 5.4
2018-Feb-16 20:30N 29°48' W 092°14'2 4.8
2018-Feb-16 20:00N 29°47' W 092°12'1 1.3
2018-Feb-16 19:30N 29°47' W 092°11'0 0.0
2018-Feb-16 19:00N 29°47' W 092°11'0 0.6
2018-Feb-16 18:30N 29°47' W 092°12'0 0.1
2018-Feb-16 18:00N 29°47' W 092°12'2 3.5
2018-Feb-16 17:30N 29°47' W 092°10'2 4.8
2018-Feb-16 17:00N 29°48' W 092°07'3 5.1
2018-Feb-16 16:30N 29°48' W 092°04'3 5.3
2018-Feb-16 16:00N 29°49' W 092°01'3 5.3
2018-Feb-16 15:30N 29°50' W 091°58'3 3.9
2018-Feb-16 14:46N 29°51' W 091°55'0 0.0
2018-Feb-16 14:30N 29°51' W 091°55'0 0.0
2018-Feb-16 13:59N 29°51' W 091°55'0 0.0
2018-Feb-16 13:27N 29°51' W 091°55'0 0.0
2018-Feb-16 12:57N 29°51' W 091°55'0 0.0
2018-Feb-16 12:08N 29°51' W 091°55'0 0.1
2018-Feb-16 11:58N 29°51' W 091°55'0 0.0
2018-Feb-16 11:30N 29°51' W 091°55'0 0.0
2018-Feb-16 10:52N 29°51' W 091°55'0 0.0
2018-Feb-16 10:05N 29°51' W 091°55'0 0.1
2018-Feb-16 09:59N 29°51' W 091°55'0 0.0
2018-Feb-16 07:43N 29°51' W 091°55'0 0.0
2018-Feb-16 07:05N 29°51' W 091°55'0 0.0
2018-Feb-16 06:44N 29°51' W 091°55'0 0.1
2018-Feb-16 06:30N 29°51' W 091°55'0 0.0
2018-Feb-16 06:00N 29°51' W 091°55'0 0.0
2018-Feb-16 05:29N 29°51' W 091°55'0 0.0
2018-Feb-16 04:00N 29°51' W 091°55'0 0.0
2018-Feb-16 02:16N 29°51' W 091°55'0 0.0
2018-Feb-16 01:54N 29°51' W 091°55'0 0.0
2018-Feb-16 01:25N 29°51' W 091°55'0 0.2
2018-Feb-16 00:54N 29°51' W 091°55'  
2018-Feb-12 10:22N 29°51' W 091°56'2 3.9
2018-Feb-12 09:55N 29°50' W 091°58'2 4.1
2018-Feb-12 09:28N 29°50' W 091°60'2 4.1
2018-Feb-12 08:58N 29°49' W 092°02'2 5.0
2018-Feb-12 08:30N 29°48' W 092°05'2 4.5
2018-Feb-12 08:00N 29°47' W 092°07'2 4.3
2018-Feb-12 07:30N 29°47' W 092°09'2 4.3
2018-Feb-12 06:59N 29°47' W 092°12'1 3.0
2018-Feb-12 06:30N 29°48' W 092°13'2 3.4
2018-Feb-12 06:00N 29°48' W 092°15'2 4.3
2018-Feb-12 05:30N 29°49' W 092°17'1 2.7
2018-Feb-12 05:00N 29°50' W 092°18'3 5.1
2018-Feb-12 04:27N 29°51' W 092°22'36 1.5
2018-Feb-11 04:52N 29°56' W 093°03'2 5.2
2018-Feb-11 04:25N 29°56' W 093°06'2 4.6
2018-Feb-11 04:00N 29°56' W 093°08'2 4.8
2018-Feb-11 03:30N 29°57' W 093°10'3 5.6
2018-Feb-11 03:00N 29°59' W 093°13'3 5.2
2018-Feb-11 02:30N 30°01' W 093°14'2 4.5
2018-Feb-11 02:00N 30°03' W 093°16'2 5.0
2018-Feb-11 01:30N 30°05' W 093°17'1 2.0
2018-Feb-11 01:00N 30°06' W 093°18'2 3.7
2018-Feb-11 00:30N 30°05' W 093°20'1 2.6
2018-Feb-11 00:00N 30°04' W 093°21'2 3.3
2018-Feb-10 23:30N 30°04' W 093°23'1 1.7
2018-Feb-10 23:00N 30°04' W 093°24'1 3.0
2018-Feb-10 22:30N 30°04' W 093°26'2 4.6
2018-Feb-10 22:00N 30°04' W 093°28'2 4.9
2018-Feb-10 21:30N 30°04' W 093°31'2 4.9
2018-Feb-10 21:00N 30°04' W 093°34'2 4.8
2018-Feb-10 20:30N 30°04' W 093°37'3 5.1
2018-Feb-10 20:00N 30°03' W 093°40'3 5.0
2018-Feb-10 19:30N 30°03' W 093°43'2 4.3
2018-Feb-10 19:00N 30°02' W 093°44'3 5.6
2018-Feb-10 18:30N 29°60' W 093°47'2 4.5
2018-Feb-10 18:00N 29°59' W 093°49'2 4.5
2018-Feb-10 17:30N 29°58' W 093°51'2 5.0
2018-Feb-10 17:00N 29°59' W 093°54'3 5.8
2018-Feb-10 16:30N 30°00' W 093°57'2 3.3
2018-Feb-10 16:00N 30°01' W 093°59'0 0.3
2018-Feb-10 15:30N 30°01' W 093°59'0 0.0
2018-Feb-10 15:00N 30°01' W 093°59'0 0.0
2018-Feb-10 14:29N 30°01' W 093°59'0 0.0
2018-Feb-10 14:00N 30°01' W 093°59'0 0.0
2018-Feb-10 13:30N 30°01' W 093°59'0 0.0
2018-Feb-10 13:00N 30°01' W 093°59'0 0.0
2018-Feb-10 12:30N 30°01' W 093°59'0 0.0
2018-Feb-10 12:00N 30°01' W 093°59'0 0.0
2018-Feb-10 11:30N 30°01' W 093°59'0 0.0
2018-Feb-10 11:00N 30°01' W 093°59'0 0.0
2018-Feb-10 10:30N 30°01' W 093°59'0 0.0
2018-Feb-10 10:00N 30°01' W 093°59'0 0.0
2018-Feb-10 09:30N 30°01' W 093°59'0 0.0
2018-Feb-10 09:00N 30°01' W 093°59'0 0.0
2018-Feb-10 08:30N 30°01' W 093°59'0 0.1
2018-Feb-10 08:00N 30°01' W 093°59'0 0.2
2018-Feb-10 07:30N 30°01' W 093°59'0 0.2
2018-Feb-10 07:00N 30°01' W 093°59'0 0.0
2018-Feb-10 06:30N 30°01' W 093°59'0 0.2
2018-Feb-10 06:00N 30°01' W 093°59'0 0.2
2018-Feb-10 05:30N 30°01' W 093°59'0 0.1
2018-Feb-10 05:00N 30°01' W 093°59'0 0.6
2018-Feb-10 04:27N 30°01' W 093°59'0 0.0
2018-Feb-10 04:00N 30°01' W 093°59'0 0.0
2018-Feb-10 03:30N 30°01' W 093°59'0 0.0
2018-Feb-10 03:00N 30°01' W 093°59'0 0.0
2018-Feb-10 02:29N 30°01' W 093°59'0 0.0
2018-Feb-10 02:00N 30°01' W 093°59'0 0.0
2018-Feb-10 01:30N 30°01' W 093°59'0 0.0
2018-Feb-10 00:59N 30°01' W 093°59'0 0.0
2018-Feb-10 00:27N 30°01' W 093°59'0 0.0
2018-Feb-10 00:00N 30°01' W 093°59'0 0.0
2018-Feb-09 23:30N 30°01' W 093°59'0 0.0
2018-Feb-09 23:00N 30°01' W 093°59'0 0.0
2018-Feb-09 22:46N 30°01' W 093°59'0 0.0
2018-Feb-09 19:30N 30°01' W 093°59'0 0.0
2018-Feb-09 19:00N 30°01' W 093°59'0 0.0
2018-Feb-09 18:00N 30°01' W 093°59'0 0.0
2018-Feb-09 17:01N 30°01' W 093°59'  

Dump ship's entire track history